createdAt,value
2023-03-16T00:01:28.589Z,9.33
2023-03-16T00:05:29.954Z,8.20
2023-03-16T00:09:31.464Z,11.60
2023-03-16T00:13:32.941Z,7.37
2023-03-16T00:17:34.726Z,11.40
2023-03-16T00:21:36.127Z,8.57
2023-03-16T00:25:37.468Z,8.30
2023-03-16T00:29:38.912Z,9.73
2023-03-16T00:33:42.934Z,9.00
2023-03-16T00:37:44.488Z,8.30
2023-03-16T00:41:46.011Z,7.60
2023-03-16T00:45:47.482Z,8.07
2023-03-16T00:49:48.887Z,7.80
2023-03-16T00:53:50.361Z,11.07
2023-03-16T00:57:51.745Z,10.23
2023-03-16T01:01:56.831Z,11.57
2023-03-16T01:06:00.802Z,23.37
2023-03-16T01:10:03.999Z,14.83
2023-03-16T01:14:05.651Z,8.07
2023-03-16T01:18:08.985Z,9.33
2023-03-16T01:22:11.604Z,6.70
2023-03-16T01:26:13.068Z,8.23
2023-03-16T01:30:14.533Z,7.30
2023-03-16T01:34:18.445Z,6.67
2023-03-16T01:38:20.185Z,7.77
2023-03-16T01:42:21.551Z,7.50
2023-03-16T01:46:29.850Z,6.20
2023-03-16T01:50:31.572Z,6.47
2023-03-16T01:54:40.801Z,7.40
2023-03-16T01:58:44.935Z,12.87
2023-03-16T02:02:51.352Z,11.27
2023-03-16T02:06:55.270Z,7.27
2023-03-16T02:10:57.602Z,6.90
2023-03-16T02:14:59.002Z,6.90
2023-03-16T02:19:00.958Z,7.60
2023-03-16T02:23:04.765Z,6.50
2023-03-16T02:27:13.879Z,7.23
2023-03-16T02:31:18.956Z,6.10
2023-03-16T02:35:21.232Z,5.93
2023-03-16T02:39:22.695Z,5.27
2023-03-16T02:43:33.238Z,5.27
2023-03-16T02:47:41.521Z,5.70
2023-03-16T02:51:45.911Z,5.73
2023-03-16T02:55:47.680Z,5.30
2023-03-16T02:59:49.092Z,4.77
2023-03-16T03:03:50.525Z,5.43
2023-03-16T03:07:51.944Z,5.33
2023-03-16T03:11:53.217Z,5.57
2023-03-16T03:15:54.575Z,5.23
2023-03-16T03:20:00.544Z,6.03
2023-03-16T03:24:02.562Z,5.23
2023-03-16T03:28:05.624Z,5.00
2023-03-16T03:32:08.003Z,5.00
2023-03-16T03:36:09.957Z,4.93
2023-03-16T03:40:14.426Z,4.80
2023-03-16T03:44:15.820Z,4.80
2023-03-16T03:48:17.176Z,4.77
2023-03-16T03:52:18.568Z,4.83
2023-03-16T03:56:20.371Z,4.57
2023-03-16T04:00:21.907Z,4.60
2023-03-16T04:04:23.309Z,4.53
2023-03-16T04:08:24.642Z,4.63
2023-03-16T04:12:26.049Z,4.83
2023-03-16T04:16:27.408Z,5.17
2023-03-16T04:20:29.898Z,5.30
2023-03-16T04:24:34.145Z,5.93
2023-03-16T04:28:35.458Z,5.60
2023-03-16T04:32:37.411Z,4.93
2023-03-16T04:36:39.184Z,5.60
2023-03-16T04:40:40.558Z,5.10
2023-03-16T04:44:44.287Z,4.90
2023-03-16T04:48:45.674Z,5.93
2023-03-16T04:52:47.072Z,6.10
2023-03-16T04:56:48.412Z,5.60
2023-03-16T05:00:52.493Z,5.43
2023-03-16T05:04:55.123Z,5.63
2023-03-16T05:08:59.151Z,5.13
2023-03-16T05:13:00.852Z,6.50
2023-03-16T05:17:03.792Z,5.47
2023-03-16T05:21:05.314Z,6.20
2023-03-16T05:25:07.034Z,5.60
2023-03-16T05:29:08.342Z,5.83
2023-03-16T05:33:09.754Z,6.43
2023-03-16T05:37:11.364Z,6.80
2023-03-16T05:41:14.853Z,6.47
2023-03-16T05:45:17.525Z,6.90
2023-03-16T05:49:18.911Z,6.50
2023-03-16T05:53:20.318Z,6.70
2023-03-16T05:57:21.685Z,6.50
2023-03-16T06:01:23.827Z,6.50
2023-03-16T06:05:25.404Z,6.60
2023-03-16T06:09:26.734Z,6.90
2023-03-16T06:13:28.077Z,6.47
2023-03-16T06:17:29.628Z,7.50
2023-03-16T06:21:31.097Z,6.60
2023-03-16T06:25:32.390Z,7.47
2023-03-16T06:29:33.751Z,6.60
2023-03-16T06:33:35.141Z,6.50
2023-03-16T06:37:36.677Z,6.63
2023-03-16T06:41:38.022Z,6.60
2023-03-16T06:45:39.409Z,6.27
2023-03-16T06:49:40.830Z,6.90
2023-03-16T06:53:42.189Z,6.17
2023-03-16T06:57:43.495Z,6.67
2023-03-16T07:01:45.086Z,6.43
2023-03-16T07:05:46.704Z,6.80
2023-03-16T07:09:48.036Z,6.67
2023-03-16T07:13:49.333Z,6.00
2023-03-16T07:17:52.354Z,6.57
2023-03-16T07:21:53.996Z,6.40
2023-03-16T07:25:55.480Z,6.30
2023-03-16T07:29:56.792Z,6.00
2023-03-16T07:33:58.970Z,6.40
2023-03-16T07:38:01.444Z,5.90
2023-03-16T07:42:02.980Z,6.20
2023-03-16T07:46:04.508Z,6.60
2023-03-16T07:50:06.595Z,6.00
2023-03-16T07:54:07.912Z,5.90
2023-03-16T07:58:10.726Z,5.90
2023-03-16T08:02:17.678Z,5.80
2023-03-16T08:06:19.316Z,5.73
2023-03-16T08:10:21.003Z,5.83
2023-03-16T08:14:22.342Z,6.03
2023-03-16T08:18:25.722Z,5.57
2023-03-16T08:22:27.106Z,5.53
2023-03-16T08:26:29.547Z,5.73
2023-03-16T08:30:31.405Z,5.80
2023-03-16T08:34:33.103Z,5.80
2023-03-16T08:38:35.232Z,5.67
2023-03-16T08:42:38.824Z,5.50
2023-03-16T08:46:40.682Z,5.40
2023-03-16T08:50:44.029Z,5.50
2023-03-16T08:55:01.531Z,5.50
2023-03-16T08:59:03.671Z,5.80
2023-03-16T09:03:06.838Z,5.30
2023-03-16T09:07:09.767Z,6.03
2023-03-16T09:11:14.264Z,5.57
2023-03-16T09:15:16.410Z,5.40
2023-03-16T09:19:18.072Z,6.13
2023-03-16T09:23:20.816Z,5.50
2023-03-16T09:27:22.478Z,6.23
2023-03-16T09:31:23.956Z,6.10
2023-03-16T09:35:26.613Z,5.93
2023-03-16T09:39:28.274Z,5.70
2023-03-16T09:43:44.435Z,6.70
2023-03-16T09:47:50.437Z,6.40
2023-03-16T09:52:03.210Z,5.90
2023-03-16T09:56:14.971Z,5.93
2023-03-16T10:00:20.018Z,6.07
2023-03-16T10:04:47.816Z,5.63
2023-03-16T10:09:00.342Z,6.20
2023-03-16T10:13:05.145Z,8.10
2023-03-16T10:17:14.388Z,5.17
2023-03-16T10:21:19.367Z,6.37
2023-03-16T10:25:31.407Z,5.97
2023-03-16T10:29:36.792Z,5.77
2023-03-16T10:33:39.349Z,5.10
2023-03-16T10:52:43.275Z,5.00
2023-03-16T10:56:46.147Z,5.33
2023-03-16T11:00:47.809Z,4.90
2023-03-16T11:04:50.712Z,4.90
2023-03-16T11:08:53.983Z,4.70
2023-03-16T11:13:02.425Z,4.17
2023-03-16T11:17:12.632Z,4.80
2023-03-16T11:21:25.622Z,4.40
2023-03-16T11:25:38.539Z,4.77
2023-03-16T11:30:27.316Z,4.37
2023-03-16T11:34:30.972Z,4.07
2023-03-16T11:39:00.419Z,3.60
2023-03-16T11:43:39.597Z,4.00
2023-03-16T11:48:15.845Z,4.27
2023-03-16T11:52:43.717Z,3.53
2023-03-16T11:56:54.627Z,3.73
2023-03-16T12:01:12.335Z,3.40
2023-03-16T12:05:25.584Z,3.37
2023-03-16T12:09:55.811Z,3.13
2023-03-16T12:14:00.420Z,3.10
2023-03-16T12:18:17.245Z,3.50
2023-03-16T12:22:39.580Z,3.23
2023-03-16T12:26:43.080Z,3.23
2023-03-16T12:30:55.554Z,3.30
2023-03-16T12:35:17.695Z,3.47
2023-03-16T12:39:30.323Z,3.00
2023-03-16T12:43:42.923Z,3.10
2023-03-16T12:47:58.751Z,3.30
2023-03-16T12:52:00.074Z,3.80
2023-03-16T12:56:08.583Z,3.70
2023-03-16T13:00:11.675Z,2.80
2023-03-16T13:04:19.781Z,2.77
2023-03-16T13:08:22.802Z,2.90
2023-03-16T13:12:36.995Z,2.63
2023-03-16T13:16:39.350Z,2.60
2023-03-16T13:20:58.651Z,2.53
2023-03-16T13:25:28.790Z,2.50
2023-03-16T13:29:32.532Z,2.33
2023-03-16T13:33:38.153Z,2.47
2023-03-16T13:37:43.593Z,2.40
2023-03-16T13:41:57.167Z,2.10
2023-03-16T13:45:58.957Z,2.40
2023-03-16T13:50:00.496Z,2.90
2023-03-16T13:54:18.432Z,2.00
2023-03-16T13:58:35.520Z,2.00
2023-03-16T14:02:42.560Z,2.13
2023-03-16T14:06:52.659Z,2.37
2023-03-16T14:10:59.138Z,2.40
2023-03-16T14:15:06.104Z,2.30
2023-03-16T14:19:20.218Z,2.50
2023-03-16T14:23:33.473Z,2.27
2023-03-16T14:27:40.894Z,2.60
2023-03-16T14:31:42.339Z,3.83
2023-03-16T14:35:44.693Z,2.80
2023-03-16T14:39:57.977Z,2.93
2023-03-16T14:44:01.571Z,2.83
2023-03-16T14:48:21.161Z,2.70
2023-03-16T14:52:31.673Z,3.63
2023-03-16T14:56:35.198Z,2.97
2023-03-16T15:00:50.164Z,2.63
2023-03-16T15:04:56.594Z,2.87
2023-03-16T15:08:58.774Z,3.07
2023-03-16T15:13:24.315Z,2.50
2023-03-16T15:17:25.963Z,2.83
2023-03-16T15:21:31.398Z,2.50
2023-03-16T15:25:38.258Z,2.50
2023-03-16T15:29:39.715Z,2.30
2023-03-16T15:33:42.078Z,2.67
2023-03-16T15:37:43.774Z,2.80
2023-03-16T15:41:47.776Z,2.50
2023-03-16T15:45:49.600Z,3.07
2023-03-16T15:49:51.163Z,3.23
2023-03-16T15:54:04.746Z,2.70
2023-03-16T15:58:15.986Z,2.67
2023-03-16T16:02:37.595Z,2.77
2023-03-16T16:06:38.922Z,3.20
2023-03-16T16:10:41.481Z,3.27
2023-03-16T16:14:42.883Z,3.23
2023-03-16T16:18:45.095Z,3.40
2023-03-16T16:22:47.192Z,3.13
2023-03-16T16:26:55.230Z,3.37
2023-03-16T16:30:59.240Z,3.17
2023-03-16T16:35:04.623Z,3.50
2023-03-16T16:39:06.726Z,3.50
2023-03-16T16:43:29.920Z,3.27
2023-03-16T16:47:31.292Z,3.37
2023-03-16T16:51:33.214Z,3.60
2023-03-16T16:55:34.692Z,4.07
2023-03-16T16:59:37.687Z,3.83
2023-03-16T17:03:39.008Z,4.50
2023-03-16T17:07:40.342Z,5.20
2023-03-16T17:11:43.739Z,4.13
2023-03-16T17:15:45.229Z,4.20
2023-03-16T17:19:47.073Z,3.97
2023-03-16T17:23:48.946Z,3.73
2023-03-16T17:27:53.424Z,4.37
2023-03-16T17:31:54.801Z,4.53
2023-03-16T17:35:56.320Z,4.40
2023-03-16T17:39:57.895Z,5.07
2023-03-16T17:44:04.806Z,4.13
2023-03-16T17:48:13.219Z,5.20
2023-03-16T17:52:18.210Z,4.57
2023-03-16T17:56:26.637Z,4.40
2023-03-16T18:00:33.364Z,4.50
2023-03-16T18:04:34.922Z,4.40
2023-03-16T18:08:36.730Z,4.50
2023-03-16T18:12:38.191Z,3.87
2023-03-16T18:16:40.582Z,4.37
2023-03-16T18:20:42.302Z,5.33
2023-03-16T18:24:44.947Z,4.63
2023-03-16T18:28:46.408Z,5.67
2023-03-16T18:32:47.730Z,5.80
2023-03-16T18:36:51.277Z,4.83
2023-03-16T18:40:52.657Z,6.57
2023-03-16T18:44:54.033Z,5.00
2023-03-16T18:48:57.960Z,4.20
2023-03-16T18:52:59.347Z,3.57
2023-03-16T18:57:04.154Z,3.73
2023-03-16T19:01:06.272Z,3.40
2023-03-16T19:05:35.632Z,3.80
2023-03-16T19:09:37.138Z,3.73
2023-03-16T19:13:38.543Z,3.60
2023-03-16T19:17:39.937Z,3.60
2023-03-16T19:21:42.811Z,3.53
2023-03-16T19:25:45.959Z,3.73
2023-03-16T19:29:49.867Z,3.90
2023-03-16T19:33:52.994Z,3.33
2023-03-16T19:37:54.469Z,3.90
2023-03-16T19:41:58.320Z,3.90
2023-03-16T19:45:59.655Z,4.20
2023-03-16T19:50:01.751Z,4.73
2023-03-16T19:54:03.143Z,4.90
2023-03-16T19:58:07.445Z,5.23
2023-03-16T20:02:31.926Z,4.60
2023-03-16T20:06:33.421Z,4.10
2023-03-16T20:10:34.982Z,4.30
2023-03-16T20:14:36.295Z,4.90
2023-03-16T20:18:37.792Z,5.30
2023-03-16T20:22:39.136Z,4.80
2023-03-16T20:26:40.925Z,5.23
2023-03-16T20:30:42.401Z,4.80
2023-03-16T20:34:45.210Z,5.17
2023-03-16T20:38:47.173Z,5.20
2023-03-16T20:42:49.695Z,7.63
2023-03-16T20:46:51.251Z,5.70
2023-03-16T20:50:54.374Z,5.43
2023-03-16T20:54:55.783Z,5.83
2023-03-16T20:58:57.852Z,6.17
2023-03-16T21:02:59.729Z,7.07
2023-03-16T21:07:01.138Z,6.17
2023-03-16T21:11:02.466Z,5.43
2023-03-16T21:15:16.180Z,8.13
2023-03-16T21:19:21.148Z,4.90
2023-03-16T21:23:23.877Z,5.13
2023-03-16T21:27:27.723Z,4.17
2023-03-16T21:31:29.116Z,4.97
2023-03-16T21:35:36.098Z,5.53
2023-03-16T21:39:37.449Z,4.60
2023-03-16T21:43:39.496Z,4.50
2023-03-16T21:47:41.433Z,5.77
2023-03-16T21:51:43.205Z,4.53
2023-03-16T21:55:44.538Z,4.80
2023-03-16T21:59:46.521Z,4.17
2023-03-16T22:03:51.355Z,3.90
2023-03-16T22:07:52.883Z,3.83
2023-03-16T22:11:54.258Z,3.90
2023-03-16T22:15:58.255Z,4.30
2023-03-16T22:19:59.804Z,3.47
2023-03-16T22:24:05.198Z,3.40
2023-03-16T22:28:12.460Z,3.90
2023-03-16T22:32:19.541Z,3.30
2023-03-16T22:36:22.088Z,3.40
2023-03-16T22:40:27.458Z,3.17
2023-03-16T22:44:28.835Z,3.77
2023-03-16T22:48:31.516Z,3.83
2023-03-16T22:52:37.168Z,4.47
2023-03-16T22:56:39.671Z,4.27
2023-03-16T23:00:41.429Z,4.60
2023-03-16T23:04:43.112Z,3.80
2023-03-16T23:08:48.198Z,5.20
2023-03-16T23:12:51.611Z,4.80
2023-03-16T23:16:53.430Z,6.27
2023-03-16T23:20:54.795Z,5.57
2023-03-16T23:24:56.586Z,5.83
2023-03-16T23:29:03.570Z,3.47
2023-03-16T23:33:04.941Z,3.80
2023-03-16T23:37:06.726Z,4.27
2023-03-16T23:41:10.272Z,4.57
2023-03-16T23:45:23.678Z,4.07
2023-03-16T23:49:32.494Z,4.00
2023-03-16T23:53:33.825Z,2.87
2023-03-16T23:57:35.181Z,2.80
